Rakitna Rakitna

Učna pot


Napoved ravni onesnaženosti z delci PM10 več informacij Air pollution


Kamera VP Rakitna več informacij Weather station camera


Cestna kamera več informacij Road camera


ARSO, spremljajte nas več informacij


Obiščite še:

Template documentacija
in prenos

in še drugo stran



Posebna pozornost v zvezi z vremenskimi dogajanji ni potrebna.    Posebna pozornost v zvezi z vremenskimi dogajanji ni potrebna.

METAR v bližini

   
LJLJ - Ljubljana
Posodobljeno: 27-10-2020 21:30
Partial, megla, meglica, delno oblačno  
Partial, megla, meglica, delno oblačno  
   Veter: Brezveterje
Veter: Brezveterje
Temperatura: 10°C
Točka rosišča: 10°C
Vlažnost: 100%
Zračni tlak: 1014 hPa
Oblaki: delno oblačno
Vidljivost: 5 km
Podrobnosti o oblakih: nekaj oblakov 100 ft,
delno oblačno 12000 ft
LJLJ 272030Z 00000KT 5000 0400SE R30/0700N PRFG BR FEW001 SCT120 10/10 Q1014 NOSIG
LJCE - Cerklje ob Krki
Posodobljeno: 27-10-2020 22:00
oblačno  
oblačno  
   Veter: Vzhod 7.4 km/h
Veter: Vzhod 7.4 km/h
Temperatura: 12°C
Točka rosišča: 12°C
Vlažnost: 100%
Zračni tlak: 1014 hPa
Oblaki: oblačno
Vidljivost: več kot 10 km
Podrobnosti o oblakih: oblačno 900 ft
LJCE 272100Z AUTO 08004KT 9999 OVC009/// 12/12 Q1014
LJMB - Maribor
Posodobljeno: 27-10-2020 22:00
rahel pršec, meglica, oblačno  
rahel pršec, meglica, oblačno  
   Veter: SV 7.4 km/h
Veter: SV 7.4 km/h
Temperatura: 10°C
Občutek mraza: 9°C
Točka rosišča: 10°C
Vlažnost: 100%
Zračni tlak: 1015 hPa
Oblaki: oblačno
Vidljivost: 2 km
Podrobnosti o oblakih: oblačno 300 ft
LJMB 272100Z 04004KT 2000 -DZ BR OVC003 10/10 Q1015
LJPZ - Portorož
Posodobljeno: 27-10-2020 22:00
jasno  
jasno  
   Veter: VJV 14.8 km/h
Veter: VJV 14.8 km/h
Temperatura: 10°C
Občutek mraza: 8°C
Točka rosišča: 9°C
Vlažnost: 94%
Zračni tlak: 1014 hPa
Vidljivost: več kot 10 km
Podrobnosti o oblakih: jasno
LJPZ 272100Z 12008KT CAVOK 10/09 Q1014
LDRI - Rijeka, Airport, Croatia
Posodobljeno: 27-10-2020 22:00
nekaj oblakov  
nekaj oblakov  
   Veter: SSZ 7.4 km/h
Veter: SSZ 7.4 km/h
Temperatura: 13°C
Točka rosišča: 10°C
Vlažnost: 82%
Zračni tlak: 1014 hPa
Oblaki: nekaj oblakov
Vidljivost: več kot 10 km
Podrobnosti o oblakih: nekaj oblakov 4000 ft
LDRI 272100Z 33004KT 9999 FEW040 13/10 Q1014
LOWK - Klagenfurt, Airport, Avstia
Posodobljeno: 27-10-2020 21:50
pretežno oblačno  
pretežno oblačno  
   Veter: različen 1.9 km/h
Veter: različen 1.9 km/h
Temperatura: 10°C
Točka rosišča: 9°C
Vlažnost: 94%
Zračni tlak: 1015 hPa
Oblaki: pretežno oblačno
Vidljivost: 8 km
Podrobnosti o oblakih: delno oblačno 1200 ft,
pretežno oblačno 1700 ft
LOWK 272050Z VRB01KT 8000 SCT012 BKN017 10/09 Q1015 NOSIG

Script developed by  Saratoga-weather.org Adapted for the template by  Weerstation Leuven

Vremenski podatki so objavljeni na:

Slovenska vremenska mreža

WeatherlinkIP

MapView

Geostik

Oprema, ki se uporablja:

Vremenska postaja
Davis VP2+ ventilirana

Vremenski program
WeatherLink

Vremenski server
Shuttle XS35V4

Ponudnik
Vremensko društvo ZEVS

Davis VP2+ ventilirana

WeatherLink

Shuttle XS35V4

Vremensko društvo ZEVS

Meteorološki podatki vremenske postaje Rakitna so neuradni, meteorološka postaja sama pa ni del državne mreže Agencije Republike Slovenije za okolje (ARSO),
je pa vključena v Vremensko društvo ZEVS. Prikazani podatki so izmerjeni točno, vendar so zgolj informativni in nimajo značaja uradnega podatka.

Podatke meri vremenska postaja "Davis VP2+ ventilirana" od 05.03.2011 dalje.

Opozarjamo, da ne prevzamemo odgovornosti za morebitno nastalo škodo, ki bi nastala zaradi odločitve, sprejete na osnovi teh podatkov!